עמוד ראשי
METAR-TAF:

METAR-TAF

שדות תעופה :

Vanua Lava, ונואטו

קו רוחב: 13-51-06S, קו אורך: 167-32-13E, גובה: 2מטר

תצפית מזג אוויר נוכחית

הדו"ח נערך לפני 1 שעות ו 5דקות, בשעה 09:00 UTC
רוח רגועה
טמפרטורת 26 צלסיוס
לחות 100%
לחץ 1012 hPa
ראות 10 קילומטר או יותר
עננים בינוניים בגובה 1800רגל
מעונן בגובה 4000רגל

METAR: NVSC 150900Z 00000KT 9999 BKN018 OVC040 26/26 Q1012

זמן: 21:05 (10:05 UTC)

תחזית

הדו"ח נערך לפני 5 שעות ו 5דקות, בשעה 05:00 UTC
תחזית בתוקף מ 15 ב 06 UTC עד 16 ב 06 UTC
רוח 5קשר מכיוון דרום-מזרח
ראות 10 קילומטר או יותר
עננים פזורים בגובה 2000רגל
עננים בינוניים בגובה 12500רגל
הסתברות 40%
בין IN ו TEUTC
ראות: 9000מטר
עננים בינוניים בגובה 1800רגל
ממטרי גשם קלים
יעשה מ
07 ב 00 UTC עד 09 ב 00 UTC
רוח 2קשר עם כיוונים משתנים

TAF: NVSC 150500Z 1506/1606 14005KT 9999 SCT020 BKN125 PROB40 INTER 1506/1512 9000 -SHRA BKN018 BECMG 0700/0900 VRB02KT

תצפיות ותחזיות מזג אוויר לגבי יותר מ- 4,000 שדות תעופה ברחבי העולם. דוחות METAR ו- TAF.

התחנות הזמינות מסומנות בנקודות צהובות ואדומות על גבי המפה.

העבר את העכבר לנקודה הצבעונית על מנת לראות את שם התחנה.

לאחר מכן, לחץ כדי לראות את תוכן ואת תחזיות מזג האוויר.

כדי לשנות את המפה: לחץ על הכפתורים הירוקים עם הפלוס השחור כדי להתקרב; על הכפתור הירוק עם המקף כדי להתרחק; או בחיצים הירוקים למפות סמוכות.


METAR-TAF: